Latest Weather Observations for Dalby

IDQ60801

Issued at 6:05 pm EST Thursday 2 October 2014 (issued every 30 minutes, with the page automatically refreshed every 10 minutes)

About weather observations | Map of weather stations | Latest weather observations for QLD | Other Formats
Station Details ID: 041522 Name: DALBY AIRPORT Lat: -27.16 Lon: 151.26 Height: 343.9 m
Data from the previous 72 hours. | See also: Recent months at Dalby
Date/Time
EST
Temp
°C
App
Temp
°C
Dew
Point
Rel
Hum
%
Delta-T
°C
Wind Press
QNH
hPa
Press
MSL
hPa
Rain
since 9 am
mm
Dir
 
Spd
km/h
Gust
km/h
Spd
kts
Gust
kts
02/06:00pm 24.0 21.4 4.4 28 9.9 NNW 7 9 4 5 1017.7 1016.5 0.0
02/05:30pm 25.9 23.0 4.4 25 11.0 WNW 9 13 5 7 1017.5 1016.2 0.0
02/05:00pm 26.0 23.5 3.9 24 11.2 ENE 6 11 3 6 1017.5 1016.2 0.0
02/04:30pm 26.5 23.2 4.3 24 11.4 N 11 17 6 9 1017.4 1016.1 0.0
02/04:00pm 26.6 23.3 4.4 24 11.4 WNW 11 17 6 9 1017.3 1016.0 0.0
02/03:30pm 26.3 22.6 4.7 25 11.1 SW 13 20 7 11 1017.2 1015.9 0.0
02/03:00pm 26.8 23.4 5.7 26 11.1 WSW 13 24 7 13 1017.4 1016.1 0.0
02/02:30pm 26.2 22.3 5.2 26 10.9 W 15 20 8 11 1017.5 1016.2 0.0
02/02:00pm 26.1 22.7 5.7 27 10.6 W 13 20 7 11 1018.0 1016.7 0.0
02/01:30pm 25.7 22.8 4.8 26 10.7 S 9 19 5 10 1018.3 1017.0 0.0
02/01:00pm 25.6 23.3 5.8 28 10.3 N 7 11 4 6 1018.7 1017.4 0.0
02/12:30pm 24.7 20.2 6.0 30 9.7 NW 19 22 10 12 1019.1 1017.8 0.0
02/12:00pm 24.4 21.4 6.2 31 9.5 NW 11 20 6 11 1019.4 1018.1 0.0
02/11:30am 23.2 19.5 6.5 34 8.7 NNE 15 24 8 13 1019.9 1018.6 0.0
02/11:00am 22.9 19.5 7.8 38 8.0 E 15 24 8 13 1020.3 1019.1 0.0
02/10:30am 22.0 20.0 7.0 38 7.8 ESE 7 9 4 5 1020.8 1019.6 0.0
02/10:00am 21.8 17.7 8.7 43 7.0 E 20 33 11 18 1021.1 1019.8 0.0
02/09:30am 21.0 15.4 8.9 46 6.5 E 28 35 15 19 1021.4 1020.1 0.0
02/09:00am 20.8 14.4 9.4 48 6.2 E 33 44 18 24 1021.4 1020.1 0.0
02/08:30am 19.3 12.5 9.2 52 5.4 E 35 46 19 25 1021.5 1020.2 0.0
02/08:00am 18.3 11.5 9.4 56 4.7 E 35 46 19 25 1021.5 1020.2 0.0
02/07:30am 17.3 10.9 9.5 60 4.2 E 33 43 18 23 1021.1 1019.8 0.0
02/07:00am 16.4 11.1 9.8 65 3.5 E 28 37 15 20 1021.1 1019.8 0.0
02/06:30am 15.2 10.2 9.6 69 2.9 E 26 32 14 17 1020.3 1019.1 0.0
02/06:00am 13.9 9.6 9.3 74 2.4 E 22 28 12 15 1019.8 1018.5 0.0
02/05:30am 12.7 8.8 9.3 80 1.8 E 20 24 11 13 1019.4 1018.1 0.0
02/05:00am 11.8 7.9 8.8 82 1.5 E 19 20 10 11 1019.1 1017.8 0.0
02/04:30am 12.2 9.1 8.9 80 1.7 ESE 15 19 8 10 1019.0 1017.7 0.0
02/04:00am 12.6 9.6 9.1 79 1.8 ESE 15 17 8 9 1018.8 1017.5 0.0
02/03:30am 13.2 9.8 9.1 76 2.1 SE 17 20 9 11 1018.6 1017.3 0.0
02/03:00am 13.9 10.1 9.1 73 2.5 SE 19 24 10 13 1018.5 1017.2 0.0
02/02:30am 14.3 10.4 9.3 72 2.6 SE 20 24 11 13 1018.4 1017.1 0.0
02/02:00am 13.9 10.4 8.9 72 2.6 SSE 17 20 9 11 1018.5 1017.2 0.0
02/01:30am 13.8 10.1 8.0 68 2.9 SSE 17 22 9 12 1018.6 1017.3 0.0
02/01:00am 13.7 9.9 5.6 58 3.9 S 15 19 8 10 1018.9 1017.6 0.0
02/12:30am 14.5 10.7 3.9 49 4.9 SSE 13 15 7 8 1019.1 1017.8 0.0
02/12:00am 15.4 10.4 -1.2 32 7.0 SSE 15 19 8 10 1019.3 1018.0 0.0
 
Date/Time
EST
Temp
°C
App
Temp
°C
Dew
Point
Rel
Hum
%
Delta-T
°C
Wind Press
QNH
hPa
Press
MSL
hPa
Rain
since 9 am
mm
Dir
 
Spd
km/h
Gust
km/h
Spd
kts
Gust
kts
01/11:30pm 16.7 10.7 -1.9 28 7.8 SSE 20 24 11 13 1019.2 1017.9 0.0
01/11:00pm 17.9 11.9 -1.9 26 8.4 S 20 24 11 13 1018.8 1017.5 0.0
01/10:30pm 19.3 13.5 -1.7 24 9.1 S 19 24 10 13 1018.6 1017.3 0.0
01/10:00pm 20.4 14.5 -0.8 24 9.4 S 20 28 11 15 1018.3 1017.0 0.0
01/09:30pm 20.8 15.6 0.1 25 9.4 S 17 20 9 11 1017.9 1016.6 0.0
01/09:00pm 21.6 15.9 0.8 25 9.6 SSW 20 28 11 15 1017.5 1016.2 0.0
01/08:30pm 22.0 17.0 1.6 26 9.6 SSW 17 20 9 11 1017.3 1016.0 0.0
01/08:00pm 22.7 17.7 1.1 24 10.1 SSW 17 20 9 11 1017.0 1015.7 0.0
01/07:30pm 23.9 18.9 1.5 23 10.7 SSW 17 22 9 12 1016.6 1015.3 0.0
01/07:00pm 24.3 18.9 1.2 22 11.0 SSW 19 24 10 13 1016.3 1015.0 0.0
01/06:30pm 25.6 20.3 1.7 21 11.6 SSW 19 24 10 13 1016.0 1014.7 0.0
01/06:00pm 26.8 20.7 0.5 18 12.6 SW 22 28 12 15 1015.5 1014.2 0.0
01/05:30pm 28.7 21.1 0.4 16 13.7 SW 30 39 16 21 1015.1 1013.8 0.0
01/05:00pm 30.1 22.0 -0.3 14 14.7 SW 32 43 17 23 1014.7 1013.4 0.0
01/04:30pm 30.8 22.2 0.2 14 15.0 WSW 35 46 19 25 1014.3 1013.0 0.0
01/04:00pm 31.9 24.2 0.1 13 15.7 SW 30 39 16 21 1014.0 1012.7 0.0
01/03:30pm 32.3 27.3 1.4 14 15.6 W 17 30 9 16 1013.8 1012.5 0.0
01/03:00pm 31.8 26.1 2.9 16 14.9 WSW 22 35 12 19 1014.0 1012.7 0.0
01/02:30pm 31.2 25.6 3.3 17 14.4 W 22 39 12 21 1014.2 1012.9 0.0
01/02:00pm 31.2 25.9 4.9 19 14.0 W 22 33 12 18 1014.6 1013.3 0.0
01/01:30pm 30.7 26.0 5.2 20 13.6 W 19 41 10 22 1015.1 1013.8 0.0
01/01:00pm 29.7 24.8 5.1 21 13.0 W 20 32 11 17 1015.6 1014.3 0.0
01/12:30pm 30.7 26.8 7.2 23 12.9 WSW 17 35 9 19 1015.9 1014.6 0.0
01/12:00pm 29.1 25.8 8.2 27 11.6 WSW 15 20 8 11 1016.5 1015.2 0.0
01/11:30am 28.4 23.2 7.1 26 11.6 W 24 32 13 17 1017.0 1015.7 0.0
01/11:00am 27.7 23.8 9.5 32 10.2 NW 20 35 11 19 1017.5 1016.2 0.0
01/10:30am 26.4 22.2 9.7 35 9.4 WNW 22 32 12 17 1018.1 1016.8 0.0
01/10:00am 25.6 22.2 11.4 41 8.2 NW 20 32 11 17 1018.5 1017.2 0.0
01/09:30am 23.7 19.6 11.4 46 7.0 NNW 24 32 13 17 1018.6 1017.8 0.0
01/09:00am 22.3 18.3 11.7 51 6.0 NW 24 30 13 16 1019.1 1018.3 0.0
01/08:30am 20.8 16.4 11.7 56 5.1 NW 26 35 14 19 1019.3 1018.5 0.0
01/08:00am 19.8 14.2 11.6 59 4.6 NW 32 41 17 22 1018.9 1018.1 0.0
01/07:30am 19.0 13.9 11.8 63 4.0 NW 30 37 16 20 1018.5 1017.7 0.0
01/07:00am 18.2 13.1 12.0 67 3.5 NNW 30 37 16 20 1017.9 1017.0 0.0
01/06:30am 16.8 12.4 11.7 72 2.8 N 26 32 14 17 1017.5 1016.7 0.0
01/06:00am 15.4 11.6 11.2 76 2.3 N 22 28 12 15 1017.4 1016.6 0.0
01/05:30am 15.4 11.6 11.0 75 2.4 NNW 22 28 12 15 1017.3 1016.5 0.0
01/05:00am 15.5 12.0 10.9 74 2.5 N 20 26 11 14 1017.0 1016.2 0.0
01/04:30am 16.1 12.3 11.1 72 2.7 NNW 22 26 12 14 1016.8 1016.0 0.0
01/04:00am 16.5 12.7 11.0 70 3.0 NNW 22 28 12 15 1016.6 1015.8 0.0
01/03:30am 17.0 13.2 11.1 68 3.2 N 22 28 12 15 1016.3 1015.5 0.0
01/03:00am 17.3 13.9 11.1 67 3.4 N 20 24 11 13 1016.2 1015.4 0.0
01/02:30am 17.6 13.7 10.9 65 3.7 N 22 26 12 14 1016.2 1015.4 0.0
01/02:00am 17.9 14.0 10.8 63 3.9 N 22 26 12 14 1016.5 1015.7 0.0
01/01:30am 18.1 13.6 10.2 60 4.3 N 24 28 13 15 1016.6 1015.8 0.0
01/01:00am 17.9 13.9 9.0 56 4.7 N 20 26 11 14 1016.8 1016.0 0.0
01/12:30am 17.4 13.0 7.5 52 5.1 N 20 24 11 13 1017.1 1016.3 0.0
01/12:00am 19.0 14.9 7.8 48 5.8 N 19 24 10 13 1017.3 1016.5 0.0
 
Date/Time
EST
Temp
°C
App
Temp
°C
Dew
Point
Rel
Hum
%
Delta-T
°C
Wind Press
QNH
hPa
Press
MSL
hPa
Rain
since 9 am
mm
Dir
 
Spd
km/h
Gust
km/h
Spd
kts
Gust
kts
30/11:30pm 18.7 15.0 7.8 49 5.7 N 17 20 9 11 1017.5 1016.7 0.0
30/11:00pm 19.2 15.4 7.6 47 6.0 N 17 19 9 10 1017.9 1017.0 0.0
30/10:30pm 19.8 15.7 7.9 46 6.2 N 19 20 10 11 1017.7 1016.9 0.0
30/10:00pm 19.7 15.5 7.4 45 6.4 N 19 20 10 11 1018.0 1017.1 0.0
30/09:30pm 19.9 16.0 7.3 44 6.5 N 17 19 9 10 1018.1 1017.2 0.0
30/09:00pm 18.7 15.6 7.2 47 5.9 NNW 13 15 7 8 1018.3 1017.4 0.0
30/08:30pm 20.0 16.4 6.7 42 6.8 N 15 15 8 8 1018.0 1017.1 0.0
30/08:00pm 20.6 17.5 7.2 42 7.0 N 13 15 7 8 1017.7 1016.9 0.0
30/07:30pm 21.3 18.5 6.8 39 7.5 N 11 13 6 7 1017.4 1016.6 0.0
30/07:00pm 22.6 19.7 6.4 35 8.4 N 11 13 6 7 1017.1 1016.3 0.0
30/06:30pm 24.7 21.8 6.4 31 9.6 N 11 13 6 7 1016.8 1016.0 0.0
30/06:00pm 25.9 23.4 6.5 29 10.3 NNW 9 11 5 6 1016.6 1015.8 0.0
30/05:30pm 28.0 25.0 6.2 25 11.6 N 11 13 6 7 1016.4 1015.6 0.0
30/05:00pm 29.1 26.1 5.9 23 12.4 NNW 11 17 6 9 1016.3 1015.5 0.0
30/04:30pm 29.1 25.7 5.9 23 12.4 N 13 20 7 11 1016.1 1015.3 0.0
30/04:00pm 29.7 26.8 6.4 23 12.6 NW 11 22 6 12 1016.1 1015.3 0.0
30/03:30pm 29.2 24.5 6.0 23 12.4 N 20 24 11 13 1016.1 1015.3 0.0
30/03:00pm 29.4 26.4 6.1 23 12.5 NNW 11 20 6 11 1016.3 1015.5 0.0
30/02:30pm 29.2 26.1 7.2 25 12.0 N 13 20 7 11 1016.6 1015.8 0.0
30/02:00pm 28.8 24.8 6.8 25 11.9 N 17 26 9 14 1017.0 1016.2 0.0
30/01:30pm 28.8 26.1 7.4 26 11.7 WNW 11 20 6 11 1017.2 1016.4 0.0
30/01:00pm 29.1 26.3 8.7 28 11.4 N 13 26 7 14 1017.7 1016.9 0.0
30/12:30pm 27.4 24.7 7.3 28 10.9 NW 11 20 6 11 1018.4 1017.5 0.0
30/12:00pm 26.8 22.8 8.3 31 10.1 NNW 19 28 10 15 1018.9 1018.1 0.0
30/11:30am 26.6 23.4 8.6 32 9.9 WNW 15 17 8 9 1019.3 1018.5 0.0
30/11:00am 25.5 21.6 8.5 34 9.3 NW 19 28 10 15 1020.0 1019.2 0.0
30/10:30am 25.6 21.4 9.8 37 8.8 NW 22 33 12 18 1020.1 1019.3 0.0
30/10:00am 24.2 19.8 9.0 38 8.3 NNW 22 30 12 16 1020.6 1019.8 0.0
30/09:30am 23.4 18.6 9.0 40 7.9 NNW 24 33 13 18 1021.0 1020.2 0.0
30/09:00am 22.5 17.0 9.3 43 7.2 NNW 28 39 15 21 1021.2 1020.4 0.0
30/08:30am 22.1 16.4 8.2 41 7.4 N 28 35 15 19 1021.2 1020.4 0.0
30/08:00am 20.6 15.7 8.6 46 6.4 N 24 28 13 15 1021.2 1020.4 0.0
30/07:30am 18.1 15.2 9.7 58 4.5 N 15 19 8 10 1021.2 1020.4 0.0
30/07:00am 15.8 13.9 10.6 71 2.8 N 11 13 6 7 1021.0 1020.2 0.0
30/06:30am 13.2 13.4 10.4 83 1.5 CALM 0 0 0 0 1020.7 1019.9 0.0
30/06:00am 11.2 9.6 8.6 84 1.3 NNW 7 9 4 5 1020.3 1019.5 0.0
30/05:30am 11.1 8.7 8.8 86 1.2 NW 11 11 6 6 1019.9 1019.1 0.0
30/05:00am 11.5 9.9 8.7 83 1.4 WNW 7 9 4 5 1019.7 1018.9 0.0
30/04:30am 11.9 10.6 9.1 83 1.4 NNW 6 7 3 4 1019.3 1018.5 0.0
30/04:00am 12.1 11.9 8.9 81 1.6 CALM 0 0 0 0 1019.2 1018.4 0.0
30/03:30am 13.0 11.8 9.6 80 1.8 N 6 6 3 3 1018.9 1018.1 0.0
30/03:00am 13.2 11.4 9.5 78 1.9 NNW 9 11 5 6 1018.8 1018.0 0.0
30/02:30am 13.3 11.6 9.7 79 1.9 NW 9 9 5 5 1019.0 1018.2 0.0
30/02:00am 13.9 12.1 9.3 74 2.4 NW 9 9 5 5 1018.9 1018.1 0.0
30/01:30am 15.9 14.6 10.0 68 3.1 N 7 11 4 6 1019.0 1018.2 0.0
30/01:00am 16.4 14.3 9.8 65 3.5 N 11 13 6 7 1019.1 1018.3 0.0
30/12:30am 16.7 15.0 9.9 64 3.6 N 9 15 5 8 1019.2 1018.4 0.0
30/12:00am 17.4 15.3 9.8 61 4.1 N 11 19 6 10 1019.2 1018.4 0.0
 
Date/Time
EST
Temp
°C
App
Temp
°C
Dew
Point
Rel
Hum
%
Delta-T
°C
Wind Press
QNH
hPa
Press
MSL
hPa
Rain
since 9 am
mm
Dir
 
Spd
km/h
Gust
km/h
Spd
kts
Gust
kts
29/11:30pm 18.0 15.5 9.6 58 4.5 N 13 17 7 9 1019.3 1018.5 0.0
29/11:00pm 18.3 14.8 8.8 54 5.0 NNE 17 20 9 11 1019.3 1018.5 0.0
29/10:30pm 16.7 13.2 7.4 54 4.7 NE 15 19 8 10 1019.1 1018.3 0.0
29/10:00pm 17.0 13.9 7.1 52 5.0 ENE 13 17 7 9 1019.0 1018.2 0.0
29/09:30pm 16.4 14.6 7.1 54 4.7 NE 6 13 3 7 1019.0 1018.2 0.0
29/09:00pm 15.9 12.8 7.1 56 4.4 ENE 13 13 7 7 1018.8 1018.0 0.0
29/08:30pm 16.5 14.5 6.9 53 4.8 NE 7 9 4 5 1018.9 1018.1 0.0
29/08:00pm 18.5 15.8 7.3 48 5.7 N 11 13 6 7 1018.7 1017.9 0.0
29/07:30pm 20.1 18.7 7.1 43 6.7 NNE 4 9 2 5 1018.3 1017.4 0.0
29/07:00pm 20.0 18.0 7.1 43 6.7 E 7 7 4 4 1018.0 1017.1 0.0
29/06:30pm 22.8 21.8 5.7 33 8.8 CALM 0 0 0 0 1017.5 1016.7 0.0

Other Formats:

Comma delimited format used in spreadsheet applications
http://www.bom.gov.au/fwo/IDQ60801/IDQ60801.94542.axf

JavaScript Object Notation format (JSON) in row-major order
http://www.bom.gov.au/fwo/IDQ60801/IDQ60801.94542.json